Time;durP1;ratioP1;P1;durP2;ratioP2;P2;SDS_P1;SDS_P2;PMS_P1;PMS_P2;Temp;Humidity;BMP_temperature;BMP_pressure;BME280_temperature;BME280_humidity;BME280_pressure;Samples;Min_cycle;Max_cycle;Signal;HPM_P1;HPM_P2
2022/08/09 00:00:21;;;;;;;9.95;5.93;;;;;;;26.76;100.00;101123.28;5094090;28;20035;-75
2022/08/09 00:03:06;;;;;;;9.20;5.65;;;;;;;26.70;100.00;101119.25;5095770;28;20024;-73
2022/08/09 00:05:52;;;;;;;8.48;5.82;;;;;;;26.92;100.00;101121.94;5093188;28;20337;-74
2022/08/09 00:08:38;;;;;;;10.00;5.68;;;;;;;26.65;100.00;101123.25;5095245;28;20016;-74
2022/08/09 00:11:24;;;;;;;8.82;6.03;;;;;;;26.79;100.00;101131.09;5079990;28;20038;-74
2022/08/09 00:14:10;;;;;;;7.55;5.97;;;;;;;26.81;100.00;101127.31;5095132;28;20024;-74
2022/08/09 00:16:56;;;;;;;6.53;5.80;;;;;;;26.81;100.00;101130.00;5094512;28;20028;-75
2022/08/09 00:19:41;;;;;;;7.75;5.90;;;;;;;26.63;100.00;101127.88;5094003;28;20032;-75
2022/08/09 00:22:27;;;;;;;10.07;6.20;;;;;;;26.64;100.00;101133.16;5094431;28;20043;-74
2022/08/09 00:25:13;;;;;;;7.20;5.85;;;;;;;26.41;100.00;101130.50;5094971;28;20020;-74
2022/08/09 00:27:59;;;;;;;8.63;6.65;;;;;;;26.15;100.00;101128.91;5094677;28;20020;-74
2022/08/09 00:30:44;;;;;;;10.57;5.93;;;;;;;26.20;100.00;101129.44;5094607;28;20399;-74
2022/08/09 00:33:30;;;;;;;8.95;6.20;;;;;;;26.42;100.00;101133.06;5080331;28;20452;-74
2022/08/09 00:36:16;;;;;;;9.02;6.57;;;;;;;26.61;100.00;101135.22;5093226;28;20456;-73
2022/08/09 00:39:02;;;;;;;8.15;6.30;;;;;;;26.66;100.00;101139.28;5094409;28;20028;-74
2022/08/09 00:41:49;;;;;;;8.52;5.75;;;;;;;26.33;100.00;101139.09;5079338;28;20033;-74
2022/08/09 00:44:34;;;;;;;8.82;6.07;;;;;;;26.41;100.00;101143.94;5094402;28;20036;-74
2022/08/09 00:47:21;;;;;;;8.25;6.45;;;;;;;26.57;100.00;101139.09;5093627;28;20036;-74
2022/08/09 00:50:07;;;;;;;13.23;6.63;;;;;;;26.59;100.00;101145.22;5094888;28;20020;-75
2022/08/09 00:52:53;;;;;;;8.95;6.65;;;;;;;26.34;100.00;101137.28;5094103;28;20342;-74
2022/08/09 00:55:39;;;;;;;8.57;6.57;;;;;;;25.83;100.00;101135.78;5094441;28;20048;-73
2022/08/09 00:58:26;;;;;;;9.85;6.45;;;;;;;26.16;100.00;101138.69;5080205;28;20028;-73
2022/08/09 01:01:19;;;;;;;9.25;6.75;;;;;;;26.27;100.00;101134.22;5096469;28;20471;-74
2022/08/09 01:04:08;;;;;;;11.30;6.85;;;;;;;26.05;100.00;101141.31;5098181;28;20062;-74
2022/08/09 01:07:05;;;;;;;7.18;6.47;;;;;;;26.13;100.00;101141.59;5098940;28;20086;-75
2022/08/09 01:10:02;;;;;;;8.35;6.60;;;;;;;26.21;100.00;101137.38;5098133;28;20453;-74
2022/08/09 01:12:58;;;;;;;9.05;6.90;;;;;;;25.95;100.00;101138.47;5098354;28;20024;-74
2022/08/09 01:15:47;;;;;;;9.90;6.97;;;;;;;25.99;100.00;101147.13;5098062;28;20035;-74
2022/08/09 01:18:35;;;;;;;10.45;6.80;;;;;;;25.75;100.00;101140.84;5098292;28;20124;-74
2022/08/09 01:22:12;;;;;;;11.15;7.10;;;;;;;26.03;100.00;101144.13;5097737;28;20028;-74
2022/08/09 01:25:19;;;;;;;11.68;6.95;;;;;;;25.88;100.00;101129.09;5056244;28;20032;-74
2022/08/09 01:28:06;;;;;;;10.10;6.85;;;;;;;25.42;100.00;101137.94;5083978;28;20028;-74
2022/08/09 01:30:56;;;;;;;12.65;7.57;;;;;;;25.69;100.00;101147.56;5097753;28;20157;-73
2022/08/09 01:33:45;;;;;;;8.55;6.72;;;;;;;25.54;100.00;101153.16;5096266;28;20116;-74
2022/08/09 01:36:32;;;;;;;10.23;6.78;;;;;;;25.77;100.00;101147.00;5097770;28;20480;-74
2022/08/09 01:39:20;;;;;;;8.20;7.10;;;;;;;25.78;100.00;101141.50;5097458;28;20028;-74
2022/08/09 01:42:07;;;;;;;8.32;7.00;;;;;;;25.73;100.00;101134.75;5096994;28;20020;-74
2022/08/09 01:44:54;;;;;;;12.02;7.45;;;;;;;25.45;100.00;101141.28;5097406;28;20059;-74
2022/08/09 01:47:41;;;;;;;9.82;7.43;;;;;;;25.94;100.00;101138.56;5097079;28;20066;-74
2022/08/09 01:50:29;;;;;;;8.65;7.72;;;;;;;25.74;100.00;101139.16;5097392;28;20032;-74
2022/08/09 01:53:16;;;;;;;11.57;7.70;;;;;;;25.66;100.00;101133.50;5096787;28;20479;-75
2022/08/09 01:56:03;;;;;;;8.90;8.00;;;;;;;25.45;100.00;101137.72;5097607;28;20117;-74
2022/08/09 01:58:51;;;;;;;10.07;7.63;;;;;;;25.61;100.00;101136.53;5097062;28;20035;-74
2022/08/09 02:01:38;;;;;;;9.63;7.30;;;;;;;25.73;100.00;101134.75;5097135;28;20044;-74
2022/08/09 02:04:27;;;;;;;10.30;7.70;;;;;;;25.68;100.00;101136.94;5096938;28;20024;-74
2022/08/09 02:07:16;;;;;;;11.68;8.00;;;;;;;25.95;100.00;101130.41;5096648;28;20131;-74
2022/08/09 02:10:08;;;;;;;10.43;7.32;;;;;;;25.80;100.00;101138.72;5096646;28;20062;-75
2022/08/09 02:12:55;;;;;;;11.80;7.80;;;;;;;25.61;100.00;101141.91;5096158;28;20039;-74
2022/08/09 02:15:47;;;;;;;10.68;7.82;;;;;;;25.85;100.00;101134.72;5096700;28;20033;-74
2022/08/09 02:18:35;;;;;;;8.88;7.28;;;;;;;25.64;100.00;101130.91;5082269;28;20505;-73
2022/08/09 02:21:23;;;;;;;9.85;7.55;;;;;;;25.81;100.00;101135.94;5080646;28;20044;-75
2022/08/09 02:24:13;;;;;;;9.90;7.47;;;;;;;25.77;100.00;101133.56;5097755;27;20464;-75
2022/08/09 02:27:03;;;;;;;10.70;7.40;;;;;;;25.44;100.00;101138.72;5096985;28;20031;-74
2022/08/09 02:29:51;;;;;;;10.32;7.88;;;;;;;25.74;100.00;101140.03;5094649;28;20070;-75
2022/08/09 02:32:42;;;;;;;10.77;7.45;;;;;;;25.67;100.00;101130.69;5096418;28;20097;-75
2022/08/09 02:35:31;;;;;;;9.65;7.93;;;;;;;25.68;100.00;101128.88;5094902;28;20363;-75
2022/08/09 02:38:25;;;;;;;8.80;7.35;;;;;;;25.64;100.00;101124.72;5096611;28;20032;-74
2022/08/09 02:41:16;;;;;;;10.48;8.02;;;;;;;25.38;100.00;101134.66;5096053;28;20028;-73
2022/08/09 02:44:07;;;;;;;11.50;7.95;;;;;;;25.24;100.00;101121.31;5096165;28;20039;-74
2022/08/09 02:46:57;;;;;;;9.57;7.97;;;;;;;25.30;100.00;101125.41;5096130;28;20020;-75
2022/08/09 02:49:51;;;;;;;12.98;8.30;;;;;;;25.42;100.00;101130.78;5080943;28;20031;-74
2022/08/09 02:52:41;;;;;;;12.18;7.78;;;;;;;25.53;100.00;101132.66;5096101;28;20024;-74
2022/08/09 02:55:29;;;;;;;12.40;8.00;;;;;;;25.38;100.00;101136.44;5096469;28;20052;-75
2022/08/09 02:58:17;;;;;;;10.35;8.57;;;;;;;25.26;100.00;101130.13;5095107;28;20023;-74
2022/08/09 03:01:05;;;;;;;14.40;8.40;;;;;;;25.33;100.00;101141.31;5096026;28;20359;-74
2022/08/09 03:03:52;;;;;;;12.75;8.02;;;;;;;24.98;100.00;101137.53;5081858;28;20360;-74
2022/08/09 03:06:41;;;;;;;11.77;8.68;;;;;;;25.14;100.00;101140.84;5095923;28;20020;-74
2022/08/09 03:09:27;;;;;;;14.90;8.65;;;;;;;25.29;100.00;101138.00;5096144;28;20031;-75
2022/08/09 03:12:14;;;;;;;12.38;8.73;;;;;;;25.18;100.00;101131.63;5095778;28;20326;-75
2022/08/09 03:15:01;;;;;;;12.40;8.68;;;;;;;25.07;100.00;101129.72;5081568;28;20103;-74
2022/08/09 03:17:48;;;;;;;11.48;8.63;;;;;;;25.24;100.00;101133.88;5095408;28;20039;-74
2022/08/09 03:20:37;;;;;;;10.10;8.35;;;;;;;25.28;100.00;101138.09;5095691;28;20390;-74
2022/08/09 03:23:23;;;;;;;13.13;8.65;;;;;;;25.44;100.00;101136.88;5093261;28;20055;-74
2022/08/09 03:26:09;;;;;;;10.88;8.50;;;;;;;25.04;100.00;101137.13;5079808;28;20023;-75
2022/08/09 03:28:58;;;;;;;10.18;8.45;;;;;;;25.26;100.00;101134.63;5095262;28;20051;-74
2022/08/09 03:31:44;;;;;;;12.25;8.40;;;;;;;25.21;100.00;101139.47;5094638;28;20099;-75
2022/08/09 03:34:30;;;;;;;11.82;8.35;;;;;;;25.10;100.00;101142.03;5095065;28;20047;-75
2022/08/09 03:37:16;;;;;;;11.45;8.25;;;;;;;24.99;100.00;101141.97;5095676;28;20478;-74
2022/08/09 03:40:02;;;;;;;9.50;8.05;;;;;;;25.32;100.00;101145.81;5095073;28;20034;-74
2022/08/09 03:42:48;;;;;;;13.98;8.35;;;;;;;25.41;100.00;101145.16;5095556;28;20032;-75
2022/08/09 03:45:35;;;;;;;12.35;8.15;;;;;;;25.35;100.00;101144.75;5094958;28;20028;-74
2022/08/09 03:48:24;;;;;;;9.57;8.23;;;;;;;25.06;100.00;101140.53;5079518;28;20028;-75
2022/08/09 03:51:11;;;;;;;10.57;8.48;;;;;;;24.90;100.00;101129.16;5095488;28;20032;-74
2022/08/09 03:53:58;;;;;;;9.52;8.07;;;;;;;25.15;100.00;101132.69;5095334;27;20051;-75
2022/08/09 03:56:44;;;;;;;10.82;8.13;;;;;;;25.22;100.00;101133.13;5095166;28;20028;-80
2022/08/09 03:59:29;;;;;;;13.05;8.38;;;;;;;25.37;100.00;101129.38;5080169;28;20028;-73
2022/08/09 04:02:17;;;;;;;11.68;7.57;;;;;;;25.51;100.00;101127.41;5094293;28;20088;-74
2022/08/09 04:05:03;;;;;;;12.10;8.35;;;;;;;25.26;100.00;101130.13;5094604;28;20107;-74
2022/08/09 04:07:49;;;;;;;14.23;8.48;;;;;;;25.61;100.00;101130.28;5094906;28;20040;-75
2022/08/09 04:10:34;;;;;;;11.75;8.68;;;;;;;25.53;100.00;101141.59;5094666;28;20097;-74
2022/08/09 04:13:20;;;;;;;11.05;8.25;;;;;;;25.61;100.00;101131.16;5080513;28;20024;-75
2022/08/09 04:16:06;;;;;;;11.02;8.85;;;;;;;25.28;100.00;101136.25;5094572;28;20036;-75
2022/08/09 04:18:51;;;;;;;10.98;7.90;;;;;;;25.42;100.00;101144.19;5095125;28;20024;-74
2022/08/09 04:21:38;;;;;;;11.27;8.18;;;;;;;25.26;100.00;101150.72;5094620;28;20024;-74
2022/08/09 04:24:24;;;;;;;10.63;8.25;;;;;;;25.55;100.00;101146.84;5079709;28;20027;-74
2022/08/09 04:27:10;;;;;;;11.00;8.07;;;;;;;25.51;100.00;101154.25;5094989;28;20031;-74
2022/08/09 04:29:56;;;;;;;13.90;9.07;;;;;;;25.82;100.00;101151.06;5093694;28;20089;-74
2022/08/09 04:32:42;;;;;;;14.63;8.88;;;;;;;25.06;100.00;101154.81;5094534;28;20141;-75
2022/08/09 04:35:28;;;;;;;9.85;8.82;;;;;;;25.32;100.00;101161.06;5095247;28;20121;-74
2022/08/09 04:38:14;;;;;;;15.38;8.95;;;;;;;25.62;100.00;101166.88;5084593;28;20020;-74
2022/08/09 04:40:59;;;;;;;12.55;8.77;;;;;;;25.77;100.00;101165.78;5098254;28;20482;-74
2022/08/09 04:43:45;;;;;;;19.83;13.38;;;;;;;25.84;100.00;101162.53;5099789;27;20028;-74
2022/08/09 04:46:31;;;;;;;20.67;16.55;;;;;;;25.92;100.00;101157.44;5097902;28;20020;-74
2022/08/09 04:49:17;;;;;;;12.75;9.18;;;;;;;25.34;100.00;101168.03;5097624;28;20086;-74
2022/08/09 04:52:04;;;;;;;18.77;13.40;;;;;;;25.63;100.00;101157.91;5098363;28;20061;-75
2022/08/09 04:54:50;;;;;;;19.83;11.40;;;;;;;25.55;100.00;101161.09;5067273;28;20389;-74
2022/08/09 04:57:36;;;;;;;23.92;11.35;;;;;;;25.43;100.00;101158.47;5078430;28;20032;-75
2022/08/09 05:00:21;;;;;;;20.27;11.05;;;;;;;25.73;100.00;101167.84;5077633;28;20392;-75
2022/08/09 05:03:07;;;;;;;28.67;11.90;;;;;;;25.55;100.00;101168.31;5076830;28;20035;-74
2022/08/09 05:05:53;;;;;;;26.90;11.90;;;;;;;25.65;100.00;101169.34;5076959;28;20413;-74
2022/08/09 05:08:39;;;;;;;26.70;12.38;;;;;;;25.74;100.00;101164.19;5062831;28;20024;-74
2022/08/09 05:11:26;;;;;;;27.80;11.43;;;;;;;25.70;100.00;101160.00;5076959;28;20098;-74
2022/08/09 05:14:12;;;;;;;18.67;10.30;;;;;;;25.46;100.00;101171.66;5077335;28;20471;-74
2022/08/09 05:16:58;;;;;;;24.20;11.10;;;;;;;25.93;100.00;101158.31;5077091;28;20036;-75
2022/08/09 05:19:44;;;;;;;22.17;11.18;;;;;;;25.60;100.00;101150.88;5063122;28;20461;-75
2022/08/09 05:22:30;;;;;;;21.40;11.50;;;;;;;25.63;100.00;101158.72;5076871;28;20393;-75
2022/08/09 05:25:16;;;;;;;22.02;10.77;;;;;;;26.07;100.00;101160.84;5063321;28;20100;-75
2022/08/09 05:28:02;;;;;;;21.98;11.27;;;;;;;26.08;100.00;101162.59;5076601;28;20056;-74
2022/08/09 05:30:47;;;;;;;23.92;10.88;;;;;;;26.22;100.00;101162.41;5076125;28;20048;-75
2022/08/09 05:33:33;;;;;;;17.40;9.85;;;;;;;26.02;100.00;101163.03;5076930;28;20103;-75
2022/08/09 05:36:19;;;;;;;16.85;9.52;;;;;;;26.03;100.00;101170.09;5075947;28;20025;-74
2022/08/09 05:39:05;;;;;;;23.98;10.13;;;;;;;26.28;100.00;101160.09;5077627;28;20043;-75
2022/08/09 05:41:51;;;;;;;19.38;10.30;;;;;;;26.66;100.00;101165.28;5076182;28;20115;-75
2022/08/09 05:44:36;;;;;;;26.80;10.45;;;;;;;26.05;100.00;101166.38;5076588;28;20020;-75
2022/08/09 05:47:23;;;;;;;16.58;10.05;;;;;;;25.90;100.00;101171.97;5075271;28;20360;-74
2022/08/09 05:50:09;;;;;;;21.63;10.25;;;;;;;26.13;100.00;101171.16;5076514;28;20039;-76
2022/08/09 05:52:55;;;;;;;15.32;9.50;;;;;;;25.99;100.00;101179.38;5076325;28;20483;-75
2022/08/09 05:55:41;;;;;;;15.68;9.70;;;;;;;25.93;100.00;101177.13;5076842;28;20051;-74
2022/08/09 05:58:26;;;;;;;14.68;9.15;;;;;;;26.10;100.00;101171.38;5077006;28;20033;-75
2022/08/09 06:01:12;;;;;;;17.08;9.35;;;;;;;26.28;100.00;101170.03;5075840;28;20329;-75
2022/08/09 06:03:58;;;;;;;19.65;9.88;;;;;;;26.82;100.00;101181.97;5077180;28;20341;-75
2022/08/09 06:06:44;;;;;;;17.80;9.50;;;;;;;26.96;100.00;101184.41;5077424;28;20020;-75
2022/08/09 06:09:29;;;;;;;18.40;9.18;;;;;;;26.70;100.00;101182.91;5076305;28;20056;-76
2022/08/09 06:12:15;;;;;;;13.93;8.48;;;;;;;26.80;100.00;101187.44;5076549;28;20013;-77
2022/08/09 06:15:01;;;;;;;15.13;8.90;;;;;;;26.86;100.00;101189.69;5076357;28;20040;-75
2022/08/09 06:17:47;;;;;;;19.70;8.23;;;;;;;26.96;100.00;101187.09;5075282;28;20024;-75
2022/08/09 06:20:33;;;;;;;20.17;9.10;;;;;;;27.15;100.00;101187.38;5076909;28;20039;-76
2022/08/09 06:23:19;;;;;;;15.88;9.05;;;;;;;27.51;100.00;101192.56;5074957;28;20514;-76
2022/08/09 06:26:05;;;;;;;15.63;9.00;;;;;;;27.30;100.00;101195.16;5076460;28;20429;-75
2022/08/09 06:28:53;;;;;;;15.35;8.63;;;;;;;27.49;100.00;101194.56;5076357;28;20031;-75
2022/08/09 06:31:38;;;;;;;14.48;9.35;;;;;;;27.98;100.00;101192.31;5076345;28;20020;-75
2022/08/09 06:34:24;;;;;;;13.23;9.05;;;;;;;27.99;100.00;101195.84;5075331;28;20020;-75
2022/08/09 06:37:10;;;;;;;12.55;8.82;;;;;;;28.07;100.00;101198.78;5075320;28;20039;-74
2022/08/09 06:39:56;;;;;;;12.65;8.50;;;;;;;28.50;100.00;101202.34;5074963;28;20028;-75
2022/08/09 06:42:41;;;;;;;15.70;9.23;;;;;;;27.46;100.00;101205.56;5076346;28;20111;-76
2022/08/09 06:45:27;;;;;;;11.38;8.73;;;;;;;27.52;100.00;101203.22;5062454;28;20078;-76
2022/08/09 06:48:13;;;;;;;11.38;8.50;;;;;;;27.78;100.00;101206.53;5075804;28;20136;-74
2022/08/09 06:50:59;;;;;;;9.60;7.82;;;;;;;28.00;100.00;101201.13;5062689;28;20024;-75
2022/08/09 06:53:44;;;;;;;10.30;8.18;;;;;;;28.48;100.00;101198.94;5081707;28;20044;-76
2022/08/09 06:56:30;;;;;;;10.98;8.00;;;;;;;28.00;100.00;101201.13;5096690;28;20038;-75
2022/08/09 06:59:16;;;;;;;9.98;7.65;;;;;;;28.28;100.00;101200.56;5095766;28;20028;-75
2022/08/09 07:02:02;;;;;;;14.88;7.90;;;;;;;28.19;100.00;101204.00;5081932;28;20028;-75
2022/08/09 07:04:48;;;;;;;10.93;8.32;;;;;;;28.80;100.00;101205.16;5096898;28;20038;-74
2022/08/09 07:07:35;;;;;;;10.25;7.85;;;;;;;28.89;100.00;101197.09;5101442;28;20052;-74
2022/08/09 07:10:21;;;;;;;10.13;7.28;;;;;;;28.80;100.00;101200.59;5084738;28;20024;-73
2022/08/09 07:13:07;;;;;;;22.10;15.25;;;;;;;28.99;100.00;101202.56;5100043;28;20028;-74
2022/08/09 07:15:53;;;;;;;11.25;7.35;;;;;;;29.16;100.00;101210.09;5082819;28;20038;-74
2022/08/09 07:18:38;;;;;;;12.70;7.50;;;;;;;29.46;100.00;101207.41;5100840;28;20028;-75
2022/08/09 07:21:24;;;;;;;14.45;7.13;;;;;;;29.19;100.00;101216.09;5097868;28;20024;-75
2022/08/09 07:24:10;;;;;;;11.02;8.25;;;;;;;29.44;100.00;101210.25;5095617;28;20034;-74
2022/08/09 07:26:57;;;;;;;9.82;7.30;;;;;;;29.35;100.00;101210.19;5098475;28;20051;-75
2022/08/09 07:29:43;;;;;;;15.75;7.60;;;;;;;29.64;100.00;101214.78;5098726;28;20032;-74
2022/08/09 07:32:29;;;;;;;10.65;7.20;;;;;;;29.37;100.00;101221.75;5097747;28;20032;-74
2022/08/09 07:35:15;;;;;;;10.50;6.78;;;;;;;29.47;100.00;101218.09;5099215;27;20469;-74
2022/08/09 07:38:01;;;;;;;12.35;7.43;;;;;;;29.65;100.00;101210.25;5096778;28;20035;-75
2022/08/09 07:40:46;;;;;;;10.68;7.18;;;;;;;29.93;100.00;101207.63;5096701;28;20042;-74
2022/08/09 07:43:32;;;;;;;10.35;6.78;;;;;;;29.33;100.00;101204.94;5096166;28;20085;-74
2022/08/09 07:46:18;;;;;;;8.55;7.03;;;;;;;29.64;100.00;101212.06;5095163;28;20027;-74
2022/08/09 07:49:04;;;;;;;10.38;7.05;;;;;;;29.71;100.00;101205.16;5096065;28;20397;-75
2022/08/09 07:51:50;;;;;;;12.32;7.20;;;;;;;30.20;100.00;101204.28;5095245;28;20437;-75
2022/08/09 07:54:37;;;;;;;8.23;7.05;;;;;;;29.65;100.00;101204.84;5094864;28;20056;-74
2022/08/09 07:57:22;;;;;;;8.55;6.63;;;;;;;29.54;100.00;101196.78;5095164;28;20039;-75
2022/08/09 08:00:08;;;;;;;7.85;6.60;;;;;;;30.33;99.85;101192.22;5094783;28;20048;-75
2022/08/09 08:02:59;;;;;;;9.10;6.40;;;;;;;30.00;100.00;101192.56;5095443;28;20070;-74
2022/08/09 08:05:45;;;;;;;10.85;6.90;;;;;;;30.44;98.70;101208.31;5079840;28;20089;-76
2022/08/09 08:08:31;;;;;;;8.98;6.70;;;;;;;30.36;99.93;101204.59;5095142;28;20024;-76
2022/08/09 08:11:17;;;;;;;9.93;6.45;;;;;;;31.02;95.89;101193.75;5094024;28;20088;-76
2022/08/09 08:14:03;;;;;;;13.45;9.00;;;;;;;31.16;96.59;101195.16;5095796;28;20043;-76
2022/08/09 08:16:48;;;;;;;10.77;7.47;;;;;;;31.07;95.81;101191.44;5080609;28;20038;-75
2022/08/09 08:19:34;;;;;;;13.27;7.18;;;;;;;31.61;92.29;101184.47;5080519;28;20023;-76
2022/08/09 08:22:20;;;;;;;7.20;5.90;;;;;;;31.29;92.37;101185.75;5094430;28;20452;-76
2022/08/09 08:25:06;;;;;;;11.02;6.57;;;;;;;31.83;90.11;101179.53;5094829;28;20054;-76
2022/08/09 08:27:52;;;;;;;10.68;6.50;;;;;;;31.69;89.55;101196.25;5094802;28;20043;-76
2022/08/09 08:30:38;;;;;;;10.10;6.28;;;;;;;31.55;86.07;101185.94;5080456;28;20454;-75
2022/08/09 08:33:24;;;;;;;13.25;6.35;;;;;;;31.96;87.14;101190.00;5094597;28;20016;-75
2022/08/09 08:36:09;;;;;;;9.18;6.43;;;;;;;32.54;81.44;101186.75;5094359;28;20040;-75
2022/08/09 08:38:55;;;;;;;9.02;6.22;;;;;;;32.82;77.97;101182.94;5094233;28;20039;-74
2022/08/09 08:41:42;;;;;;;11.15;8.25;;;;;;;32.87;77.71;101186.03;5079106;28;20032;-75
2022/08/09 08:44:28;;;;;;;14.77;6.03;;;;;;;33.23;74.78;101187.63;5094453;28;20031;-75
2022/08/09 08:47:14;;;;;;;11.63;6.80;;;;;;;32.83;77.16;101176.50;5094362;28;20043;-75
2022/08/09 08:50:00;;;;;;;11.93;6.60;;;;;;;33.57;73.50;101185.84;5094279;28;20024;-76
2022/08/09 08:52:47;;;;;;;13.63;7.00;;;;;;;33.57;71.62;101184.97;5094226;28;20024;-76
2022/08/09 08:55:34;;;;;;;8.68;5.88;;;;;;;33.18;71.08;101181.84;5094639;28;20040;-76
2022/08/09 08:58:22;;;;;;;9.73;6.93;;;;;;;33.48;70.18;101181.38;5080021;28;20027;-76
2022/08/09 09:01:08;;;;;;;10.57;6.38;;;;;;;33.35;72.08;101174.69;5079219;28;20031;-76
2022/08/09 09:03:54;;;;;;;12.65;6.15;;;;;;;32.31;77.02;101168.38;5094372;28;20024;-76
2022/08/09 09:06:42;;;;;;;12.70;6.15;;;;;;;32.96;73.14;101165.22;5094388;28;20016;-76
2022/08/09 09:09:29;;;;;;;10.20;6.25;;;;;;;33.23;71.75;101174.06;5079430;28;20024;-76
2022/08/09 09:12:17;;;;;;;12.82;6.13;;;;;;;33.43;69.48;101166.56;5094094;28;20024;-75
2022/08/09 09:15:04;;;;;;;9.82;6.72;;;;;;;34.05;66.09;101161.56;5079946;28;20020;-74
2022/08/09 09:17:50;;;;;;;10.25;6.07;;;;;;;33.30;69.64;101164.25;5094134;28;20384;-75
2022/08/09 09:20:37;;;;;;;7.13;5.95;;;;;;;33.90;68.33;101157.78;5094332;28;20028;-75
2022/08/09 09:23:50;;;;;;;9.25;6.15;;;;;;;33.19;70.14;101156.38;5097425;28;20105;-75
2022/08/09 09:26:36;;;;;;;10.85;6.40;;;;;;;33.72;70.87;101154.31;5082798;28;20059;-75
2022/08/09 09:29:34;;;;;;;7.75;6.20;;;;;;;33.83;69.16;101154.00;5097526;28;20109;-75
2022/08/09 09:32:25;;;;;;;13.15;6.18;;;;;;;32.95;68.33;101152.66;5097553;28;20024;-75
2022/08/09 09:35:11;;;;;;;9.52;5.93;;;;;;;33.32;64.73;101139.69;5097438;28;20035;-76
2022/08/09 09:37:58;;;;;;;10.00;6.05;;;;;;;33.30;65.77;101139.78;5096994;28;20039;-76
2022/08/09 09:40:44;;;;;;;11.13;6.30;;;;;;;34.15;64.31;101132.31;5097522;28;20093;-75
2022/08/09 09:43:31;;;;;;;12.98;6.07;;;;;;;34.00;64.55;101131.25;5083305;28;20477;-75
2022/08/09 09:46:17;;;;;;;9.50;5.97;;;;;;;33.69;67.52;101130.16;5097699;28;20494;-76
2022/08/09 09:49:09;;;;;;;10.98;6.35;;;;;;;33.85;66.25;101130.22;5097512;28;20024;-74
2022/08/09 09:52:08;;;;;;;11.88;9.13;;;;;;;34.19;62.18;101121.97;5082485;28;20092;-75
2022/08/09 09:55:06;;;;;;;15.88;6.32;;;;;;;34.66;60.99;101123.00;5097053;28;20059;-75
2022/08/09 09:58:00;;;;;;;17.23;6.30;;;;;;;34.48;57.25;101122.34;5095816;28;20027;-76
2022/08/09 10:00:55;;;;;;;7.60;5.57;;;;;;;34.26;55.87;101115.69;5096915;28;20360;-77
2022/08/09 10:03:43;;;;;;;10.73;5.80;;;;;;;34.24;57.41;101106.81;5096927;28;20024;-76
2022/08/09 10:06:39;;;;;;;8.02;5.40;;;;;;;34.47;56.42;101109.78;5080845;28;20452;-76
2022/08/09 10:09:25;;;;;;;11.18;5.47;;;;;;;34.35;55.56;101114.69;5097327;28;20031;-75
2022/08/09 10:12:11;;;;;;;17.55;13.27;;;;;;;34.32;56.15;101106.84;5095266;28;20051;-76
2022/08/09 10:15:07;;;;;;;12.30;6.10;;;;;;;34.27;58.48;101101.03;5096136;28;20372;-75
2022/08/09 10:17:53;;;;;;;8.50;5.97;;;;;;;34.82;56.32;101095.78;5096443;28;20054;-75
2022/08/09 10:20:39;;;;;;;17.38;5.70;;;;;;;34.74;52.87;101099.34;5097183;28;20038;-76
2022/08/09 10:23:25;;;;;;;6.63;5.15;;;;;;;34.42;52.88;101091.22;5096279;28;20028;-76
2022/08/09 10:26:12;;;;;;;8.63;5.55;;;;;;;34.36;55.50;101094.59;5082178;28;20174;-75
2022/08/09 10:28:58;;;;;;;9.05;5.30;;;;;;;34.60;54.10;101089.16;5096318;28;20039;-75
2022/08/09 10:31:43;;;;;;;8.25;5.28;;;;;;;35.12;52.47;101086.88;5096627;28;20052;-75
2022/08/09 10:34:30;;;;;;;10.25;5.50;;;;;;;34.62;48.22;101084.41;5096308;28;20365;-75
2022/08/09 10:37:18;;;;;;;8.50;4.78;;;;;;;35.38;46.37;101076.56;5096329;28;20059;-76
2022/08/09 10:40:06;;;;;;;12.82;4.95;;;;;;;35.22;45.33;101087.50;5096530;28;20032;-75
2022/08/09 10:42:51;;;;;;;10.43;5.13;;;;;;;34.72;46.82;101073.31;5095616;28;20479;-75
2022/08/09 10:45:48;;;;;;;7.72;4.97;;;;;;;35.18;45.32;101070.66;5081835;28;20032;-76
2022/08/09 10:48:48;;;;;;;5.75;4.18;;;;;;;35.44;40.66;101058.66;5096057;28;20071;-77
2022/08/09 10:51:48;;;;;;;10.60;4.93;;;;;;;35.42;42.86;101067.00;5096065;28;20047;-75
2022/08/09 10:54:34;;;;;;;6.88;4.75;;;;;;;35.30;44.05;101070.28;5095609;28;20044;-75
2022/08/09 10:57:22;;;;;;;9.13;4.93;;;;;;;35.01;43.22;101062.72;5082237;28;20024;-75
2022/08/09 11:00:41;;;;;;;7.00;5.38;;;;;;;35.56;42.04;101063.53;5081413;28;20024;-75
2022/08/09 11:03:27;;;;;;;8.55;4.40;;;;;;;34.76;41.61;101063.78;5095786;28;20107;-75
2022/08/09 11:06:18;;;;;;;10.40;4.85;;;;;;;35.30;42.02;101051.22;5095414;28;20086;-75
2022/08/09 11:09:05;;;;;;;8.32;4.80;;;;;;;35.22;41.94;101047.47;5096167;28;20035;-76
2022/08/09 11:11:56;;;;;;;7.53;4.70;;;;;;;35.88;39.36;101047.00;5095514;28;20023;-75
2022/08/09 11:14:50;;;;;;;8.77;4.40;;;;;;;36.20;36.69;101052.16;5095632;28;20028;-75
2022/08/09 11:17:43;;;;;;;6.75;4.00;;;;;;;36.30;34.51;101052.81;5096483;27;20028;-75
2022/08/09 11:20:43;;;;;;;9.48;4.90;;;;;;;35.55;35.68;101040.00;5095561;28;20024;-75
2022/08/09 11:23:48;;;;;;;12.90;6.05;;;;;;;36.03;36.03;101044.31;5095082;28;20029;-75
2022/08/09 11:26:38;;;;;;;7.85;4.15;;;;;;;35.98;34.23;101038.53;5096204;28;20415;-75
2022/08/09 11:29:54;;;;;;;12.32;6.18;;;;;;;36.40;33.57;101028.81;5079106;28;20035;-74
2022/08/09 11:32:46;;;;;;;9.52;4.55;;;;;;;36.86;32.70;101040.47;5080534;28;20458;-74
2022/08/09 11:35:54;;;;;;;5.38;4.40;;;;;;;36.68;31.59;101040.84;5096265;28;20097;-74
2022/08/09 11:38:39;;;;;;;7.00;3.92;;;;;;;36.47;31.19;101032.50;5095105;28;20047;-75
2022/08/09 11:41:27;;;;;;;4.97;4.05;;;;;;;36.08;32.01;101018.16;5094843;28;20028;-74
2022/08/09 11:44:13;;;;;;;6.40;3.78;;;;;;;35.89;31.89;101020.53;5094891;28;20039;-75
2022/08/09 11:47:00;;;;;;;8.30;4.13;;;;;;;35.77;32.70;101022.00;5094928;28;20160;-75
2022/08/09 11:50:04;;;;;;;7.07;3.90;;;;;;;36.32;32.24;101015.25;5095005;28;20024;-75
2022/08/09 11:53:16;;;;;;;8.15;3.92;;;;;;;36.32;30.34;101004.31;5080135;28;20028;-74
2022/08/09 11:56:15;;;;;;;5.82;3.92;;;;;;;36.84;29.21;101010.63;5094761;28;20055;-75
2022/08/09 11:59:00;;;;;;;5.10;4.15;;;;;;;36.53;30.41;101001.75;5095343;28;20084;-75
2022/08/09 12:01:46;;;;;;;6.15;3.75;;;;;;;36.42;29.65;100993.13;5094751;28;20036;-75
2022/08/09 12:04:32;;;;;;;6.40;3.33;;;;;;;36.62;29.83;100995.16;5094701;28;20024;-74
2022/08/09 12:07:18;;;;;;;6.90;3.70;;;;;;;36.84;29.00;100986.03;5081372;28;20035;-74
2022/08/09 12:10:04;;;;;;;7.78;3.60;;;;;;;36.64;29.70;100975.84;5094725;28;20059;-74
2022/08/09 12:12:50;;;;;;;5.30;3.47;;;;;;;36.98;29.40;100979.72;5080236;28;20032;-74
2022/08/09 12:15:36;;;;;;;8.98;3.45;;;;;;;37.13;28.91;100975.09;5079980;28;20059;-75
2022/08/09 12:18:22;;;;;;;9.88;3.70;;;;;;;37.42;28.59;100975.03;5093907;28;20016;-74
2022/08/09 12:21:09;;;;;;;6.97;4.40;;;;;;;36.55;28.82;100980.53;5095014;28;20047;-74
2022/08/09 12:23:56;;;;;;;6.13;4.90;;;;;;;37.03;29.24;100968.19;5079669;28;20097;-75
2022/08/09 12:26:49;;;;;;;6.90;4.97;;;;;;;37.39;28.63;100959.00;5095006;28;20147;-75
2022/08/09 12:29:36;;;;;;;6.97;3.47;;;;;;;37.31;27.96;100959.13;5093126;28;20039;-75
2022/08/09 12:32:26;;;;;;;5.65;3.55;;;;;;;36.38;27.72;100959.91;5094599;28;20082;-76
2022/08/09 12:35:12;;;;;;;5.82;3.05;;;;;;;36.60;27.29;100960.88;5079378;28;20028;-75
2022/08/09 12:37:57;;;;;;;6.18;3.50;;;;;;;36.92;26.95;100953.13;5094340;28;20107;-76
2022/08/09 12:40:46;;;;;;;6.00;3.33;;;;;;;36.81;26.10;100950.06;5094232;28;20107;-75
2022/08/09 12:43:32;;;;;;;8.40;3.20;;;;;;;37.06;26.95;100938.63;5094347;28;20039;-74
2022/08/09 12:46:18;;;;;;;13.50;3.63;;;;;;;37.12;26.20;100932.38;5079414;28;20088;-75
2022/08/09 12:49:06;;;;;;;6.15;3.08;;;;;;;36.89;26.34;100926.22;5079988;28;20039;-74